Aviation Digital Data Service (ADDS)

Output produced by METARs form (1453 UTC 24 August 2019)
found at http://www.aviationweather.gov/metar/data/
 
Forecast for: DFOO (BOBO-DIOULASSO , BF)
Text: TAF DFOO 241100Z 2412/2512 20008KT 9999 SCT016
Forecast period: 1200 UTC 24 August 2019 to 1200 UTC 25 August 2019
Forecast type: FROM: standard forecast or significant change
Winds: from the SSW (200 degrees) at 9 MPH (8 knots; 4.1 m/s)
Visibility: 6 or more miles 10+ km)
Ceiling: at least 12,000 feet AGL
Clouds: scattered clouds at 1600 feet AGL
Weather: no significant weather forecast for this period
Text: TEMPO 2414/2504 2500 TSSHRA BKN010 SCT016 SCT030CB
Forecast period: 1400 UTC 24 August 2019 to 0400 UTC 25 August 2019
Forecast type: TEMPORARY: The following changes expected for less than half the time period
Visibility: 1.55 miles (2.49 km)
Ceiling: 1000 feet AGL
Clouds: broken clouds at 1000 feet AGL
scattered clouds at 1600 feet AGL
scattered clouds at 3000 feet AGL
Weather: SHRA TS  (rain showers, thunderstorm)